createdAt,value
2018-06-12T00:00:42.024Z,98.53
2018-06-12T00:03:10.460Z,104.10
2018-06-12T00:05:38.835Z,104.23
2018-06-12T00:08:07.350Z,103.50
2018-06-12T00:10:35.822Z,101.13
2018-06-12T00:13:04.457Z,103.00
2018-06-12T00:15:32.989Z,110.70
2018-06-12T00:18:01.395Z,107.33
2018-06-12T00:20:29.984Z,109.70
2018-06-12T00:22:58.552Z,104.60
2018-06-12T00:25:26.998Z,108.13
2018-06-12T00:27:55.469Z,104.60
2018-06-12T00:30:23.853Z,110.30
2018-06-12T00:32:52.473Z,114.87
2018-06-12T00:35:20.548Z,103.17
2018-06-12T00:37:49.006Z,113.13
2018-06-12T00:40:17.382Z,100.50
2018-06-12T00:42:45.785Z,103.43
2018-06-12T00:45:13.973Z,106.43
2018-06-12T00:47:43.212Z,102.00
2018-06-12T00:50:11.794Z,94.20
2018-06-12T00:52:40.656Z,101.83
2018-06-12T00:55:09.085Z,93.13
2018-06-12T00:57:37.869Z,93.00
2018-06-12T01:00:06.296Z,101.60
2018-06-12T01:02:34.425Z,98.13
2018-06-12T01:05:02.829Z,115.47
2018-06-12T01:07:31.248Z,98.53
2018-06-12T01:09:59.635Z,91.73
2018-06-12T01:12:28.071Z,89.43
2018-06-12T01:14:56.163Z,84.40
2018-06-12T01:17:24.573Z,81.47
2018-06-12T01:19:53.017Z,79.10
2018-06-12T01:22:21.421Z,94.97
2018-06-12T01:24:49.825Z,85.80
2018-06-12T01:27:18.204Z,84.83
2018-06-12T01:29:46.681Z,78.60
2018-06-12T01:32:15.238Z,81.10
2018-06-12T01:34:43.689Z,75.77
2018-06-12T01:37:12.097Z,79.47
2018-06-12T01:39:40.537Z,69.43
2018-06-12T01:42:08.963Z,82.23
2018-06-12T01:44:37.488Z,75.27
2018-06-12T01:47:05.914Z,72.97
2018-06-12T01:49:34.500Z,73.43
2018-06-12T01:52:02.871Z,71.23
2018-06-12T01:54:31.296Z,74.40
2018-06-12T01:56:59.821Z,70.67
2018-06-12T01:59:27.907Z,72.77
2018-06-12T02:01:56.668Z,68.33
2018-06-12T02:04:25.059Z,67.00
2018-06-12T02:06:53.144Z,61.10
2018-06-12T02:09:21.548Z,62.77
2018-06-12T02:11:49.920Z,58.83
2018-06-12T02:14:18.562Z,62.87
2018-06-12T02:16:47.040Z,56.80
2018-06-12T02:19:15.488Z,62.73
2018-06-12T02:21:43.912Z,68.30
2018-06-12T02:24:12.361Z,74.70
2018-06-12T02:26:40.817Z,61.37
2018-06-12T02:29:09.265Z,61.23
2018-06-12T02:34:41.416Z,58.63
2018-06-12T02:37:09.796Z,54.77
2018-06-12T02:39:38.224Z,54.80
2018-06-12T02:42:06.665Z,55.13
2018-06-12T02:44:35.274Z,59.03
2018-06-12T02:47:03.881Z,61.30
2018-06-12T02:49:32.350Z,69.40
2018-06-12T02:52:00.865Z,61.20
2018-06-12T02:54:29.449Z,63.77
2018-06-12T02:56:58.075Z,57.53
2018-06-12T02:59:26.481Z,59.73
2018-06-12T03:01:59.284Z,58.70
2018-06-12T03:04:28.290Z,56.10
2018-06-12T03:06:56.921Z,58.50
2018-06-12T03:09:25.311Z,57.10
2018-06-12T03:11:53.857Z,57.53
2018-06-12T03:14:22.246Z,57.50
2018-06-12T03:16:50.705Z,52.20
2018-06-12T03:19:19.086Z,51.40
2018-06-12T03:21:47.465Z,52.80
2018-06-12T03:24:15.897Z,50.00
2018-06-12T03:26:44.253Z,56.07
2018-06-12T03:29:12.675Z,60.73
2018-06-12T03:31:41.032Z,59.40
2018-06-12T03:34:09.479Z,55.33
2018-06-12T03:36:42.331Z,52.50
2018-06-12T03:39:10.691Z,45.57
2018-06-12T03:41:39.177Z,57.30
2018-06-12T03:44:07.539Z,47.00
2018-06-12T03:46:36.073Z,48.10
2018-06-12T03:49:04.498Z,54.03
2018-06-12T03:51:32.956Z,56.87
2018-06-12T03:54:01.447Z,63.47
2018-06-12T03:56:29.982Z,62.50
2018-06-12T03:58:59.212Z,61.50
2018-06-12T04:01:27.614Z,72.37
2018-06-12T04:03:56.029Z,72.93
2018-06-12T04:06:24.482Z,70.67
2018-06-12T04:08:52.969Z,58.17
2018-06-12T04:11:21.411Z,77.33
2018-06-12T04:13:49.954Z,60.63
2018-06-12T04:16:36.673Z,47.27
2018-06-12T04:19:07.120Z,49.70
2018-06-12T04:21:36.077Z,45.90
2018-06-12T04:24:04.604Z,46.07
2018-06-12T04:26:32.969Z,38.43
2018-06-12T04:29:01.456Z,33.70
2018-06-12T04:31:32.164Z,39.53
2018-06-12T04:34:00.662Z,33.47
2018-06-12T04:36:29.072Z,34.10
2018-06-12T04:38:57.462Z,36.50
2018-06-12T04:41:25.853Z,31.40
2018-06-12T04:43:54.283Z,39.03
2018-06-12T04:46:22.801Z,29.70
2018-06-12T04:48:51.140Z,30.03
2018-06-12T04:51:19.548Z,33.73
2018-06-12T04:53:47.981Z,35.60
2018-06-12T04:56:16.460Z,33.20
2018-06-12T04:58:44.855Z,35.90
2018-06-12T05:01:13.256Z,38.33
2018-06-12T05:03:41.749Z,28.87
2018-06-12T05:06:10.154Z,31.23
2018-06-12T05:08:38.518Z,30.67
2018-06-12T05:11:06.965Z,28.70
2018-06-12T05:13:35.396Z,34.53
2018-06-12T05:16:03.784Z,38.00
2018-06-12T05:18:32.319Z,37.23
2018-06-12T05:21:00.695Z,37.63
2018-06-12T05:23:29.069Z,35.73
2018-06-12T05:25:57.488Z,38.70
2018-06-12T05:28:25.590Z,37.33
2018-06-12T05:30:54.029Z,33.10
2018-06-12T05:33:22.454Z,34.70
2018-06-12T05:35:50.884Z,36.50
2018-06-12T05:38:19.272Z,35.63
2018-06-12T05:40:47.805Z,31.27
2018-06-12T05:43:16.181Z,30.03
2018-06-12T05:45:44.661Z,34.10
2018-06-12T05:48:13.033Z,34.83
2018-06-12T05:50:41.390Z,32.20
2018-06-12T05:53:09.889Z,33.90
2018-06-12T05:55:38.295Z,33.83
2018-06-12T05:58:06.845Z,35.00
2018-06-12T06:00:35.401Z,30.30
2018-06-12T06:03:03.770Z,30.90
2018-06-12T06:05:32.187Z,34.80
2018-06-12T06:08:00.602Z,36.80
2018-06-12T06:10:29.013Z,33.00
2018-06-12T06:12:57.444Z,40.03
2018-06-12T06:15:25.866Z,33.73
2018-06-12T06:17:53.997Z,33.67
2018-06-12T06:20:22.386Z,31.60
2018-06-12T06:22:50.842Z,36.57
2018-06-12T06:25:19.483Z,32.47
2018-06-12T06:27:48.105Z,34.40
2018-06-12T06:30:16.641Z,36.63
2018-06-12T06:32:45.718Z,35.60
2018-06-12T06:35:14.206Z,39.50
2018-06-12T06:37:42.584Z,43.67
2018-06-12T06:40:11.167Z,44.73
2018-06-12T06:42:39.640Z,44.73
2018-06-12T06:45:08.062Z,42.33
2018-06-12T06:47:36.132Z,37.73
2018-06-12T06:50:04.638Z,40.97
2018-06-12T06:52:33.119Z,33.33
2018-06-12T06:55:01.489Z,38.83
2018-06-12T06:57:29.841Z,34.70
2018-06-12T06:59:58.259Z,30.93
2018-06-12T07:02:26.669Z,37.37
2018-06-12T07:04:55.103Z,28.90
2018-06-12T07:07:23.517Z,34.20
2018-06-12T07:09:51.907Z,40.37
2018-06-12T07:12:20.304Z,35.40
2018-06-12T07:14:48.747Z,26.00
2018-06-12T07:17:17.140Z,21.40
2018-06-12T07:19:45.725Z,35.30
2018-06-12T07:22:14.102Z,33.07
2018-06-12T07:24:42.536Z,27.90
2018-06-12T07:27:11.267Z,29.50
2018-06-12T07:29:39.898Z,29.30
2018-06-12T07:32:08.693Z,31.10
2018-06-12T07:34:37.215Z,32.07
2018-06-12T07:37:05.958Z,27.47
2018-06-12T07:39:34.417Z,35.10
2018-06-12T07:42:02.986Z,31.63
2018-06-12T07:44:31.613Z,33.50
2018-06-12T07:47:00.241Z,37.73
2018-06-12T07:49:28.733Z,37.87
2018-06-12T07:51:57.309Z,37.90
2018-06-12T07:54:25.900Z,36.00
2018-06-12T07:56:54.702Z,35.57
2018-06-12T07:59:23.467Z,29.63
2018-06-12T08:01:52.261Z,31.37
2018-06-12T08:04:20.674Z,33.43
2018-06-12T08:06:49.467Z,35.23
2018-06-12T08:09:18.193Z,33.43
2018-06-12T08:11:47.093Z,40.47
2018-06-12T08:14:15.762Z,42.40
2018-06-12T08:16:44.232Z,42.13
2018-06-12T08:19:12.873Z,45.30
2018-06-12T08:21:41.664Z,40.20
2018-06-12T08:24:10.368Z,38.03
2018-06-12T08:26:38.933Z,36.73
2018-06-12T08:29:07.721Z,42.03
2018-06-12T08:31:36.280Z,38.27
2018-06-12T08:34:04.847Z,36.80
2018-06-12T08:36:33.384Z,37.80
2018-06-12T08:39:01.865Z,45.23
2018-06-12T08:41:30.608Z,47.90
2018-06-12T08:43:59.428Z,44.40
2018-06-12T08:46:28.450Z,40.17
2018-06-12T08:48:57.049Z,41.50
2018-06-12T08:51:25.687Z,62.80
2018-06-12T08:53:54.154Z,37.77
2018-06-12T08:56:22.987Z,32.73
2018-06-12T08:58:51.776Z,35.00
2018-06-12T09:01:20.490Z,38.13
2018-06-12T09:03:49.630Z,37.20
2018-06-12T09:06:18.483Z,40.13
2018-06-12T09:08:47.137Z,37.97
2018-06-12T09:11:15.589Z,39.40
2018-06-12T09:13:44.314Z,41.40
2018-06-12T09:16:12.765Z,44.70
2018-06-12T09:18:41.358Z,48.13
2018-06-12T09:21:09.821Z,48.90
2018-06-12T09:23:38.265Z,46.40
2018-06-12T09:26:06.916Z,44.40
2018-06-12T09:28:35.561Z,52.40
2018-06-12T09:31:04.013Z,51.27
2018-06-12T09:33:32.440Z,51.70
2018-06-12T09:36:06.138Z,54.47
2018-06-12T09:38:34.572Z,52.47
2018-06-12T09:41:03.026Z,46.80
2018-06-12T09:43:31.468Z,38.27
2018-06-12T09:46:00.033Z,39.37
2018-06-12T09:48:28.517Z,35.20
2018-06-12T09:50:57.044Z,27.90
2018-06-12T09:53:25.466Z,26.57
2018-06-12T09:55:53.901Z,25.90
2018-06-12T09:58:22.589Z,21.60
2018-06-12T10:00:56.433Z,22.30
2018-06-12T10:03:24.928Z,23.80
2018-06-12T10:05:53.539Z,20.60
2018-06-12T10:08:22.158Z,21.33
2018-06-12T10:10:50.929Z,25.20
2018-06-12T10:13:19.271Z,24.73
2018-06-12T10:15:48.032Z,21.23
2018-06-12T10:18:16.620Z,20.50
2018-06-12T10:20:45.069Z,20.73
2018-06-12T10:23:13.456Z,21.10
2018-06-12T10:25:41.941Z,20.23
2018-06-12T10:28:10.356Z,16.77
2018-06-12T10:30:38.890Z,16.17
2018-06-12T10:33:07.390Z,15.77
2018-06-12T10:35:35.786Z,12.90
2018-06-12T10:38:04.290Z,12.00
2018-06-12T10:40:32.732Z,11.37
2018-06-12T10:43:01.281Z,11.30
2018-06-12T10:45:29.713Z,9.50
2018-06-12T10:47:58.174Z,10.30
2018-06-12T10:50:26.605Z,12.90
2018-06-12T10:52:55.053Z,13.97
2018-06-12T10:55:23.407Z,14.33
2018-06-12T10:57:51.811Z,14.03
2018-06-12T11:00:20.498Z,18.77
2018-06-12T11:02:49.202Z,17.67
2018-06-12T11:05:18.044Z,14.83
2018-06-12T11:07:46.663Z,11.90
2018-06-12T11:10:15.233Z,11.77
2018-06-12T11:12:44.049Z,12.83
2018-06-12T11:15:12.588Z,15.80
2018-06-12T11:17:41.374Z,16.70
2018-06-12T11:20:09.889Z,16.43
2018-06-12T11:22:38.633Z,17.13
2018-06-12T11:25:06.773Z,18.60
2018-06-12T11:27:35.410Z,20.07
2018-06-12T11:30:03.971Z,18.90
2018-06-12T11:32:32.385Z,18.60
2018-06-12T11:35:00.967Z,17.77
2018-06-12T11:37:29.398Z,19.90
2018-06-12T11:39:57.895Z,19.57
2018-06-12T11:42:26.332Z,19.27
2018-06-12T11:44:54.737Z,20.13
2018-06-12T11:47:23.192Z,19.70
2018-06-12T11:49:51.689Z,19.13
2018-06-12T11:52:20.196Z,21.43
2018-06-12T11:54:48.770Z,22.90
2018-06-12T11:57:17.321Z,22.00
2018-06-12T11:59:45.849Z,19.90
2018-06-12T12:02:14.292Z,17.80
2018-06-12T12:04:42.967Z,19.00
2018-06-12T12:07:11.493Z,18.40
2018-06-12T12:09:39.936Z,19.00
2018-06-12T12:12:08.407Z,18.43
2018-06-12T12:14:36.924Z,18.70
2018-06-12T12:17:05.457Z,19.20
2018-06-12T12:19:33.963Z,18.20
2018-06-12T12:22:02.385Z,18.77
2018-06-12T12:24:30.833Z,25.70
2018-06-12T12:26:59.236Z,20.97
2018-06-12T12:29:27.794Z,19.70
2018-06-12T12:31:56.289Z,18.97
2018-06-12T12:34:24.697Z,17.17
2018-06-12T12:36:53.110Z,16.30
2018-06-12T12:39:21.524Z,14.97
2018-06-12T12:41:49.976Z,15.30
2018-06-12T12:44:18.544Z,17.20
2018-06-12T12:46:46.958Z,16.23
2018-06-12T12:49:15.378Z,18.67
2018-06-12T12:51:43.803Z,19.30
2018-06-12T12:54:12.247Z,21.13
2018-06-12T12:56:40.657Z,21.07
2018-06-12T12:59:09.070Z,19.83
2018-06-12T13:01:37.509Z,19.67
2018-06-12T13:04:05.988Z,21.37
2018-06-12T13:06:34.352Z,20.80
2018-06-12T13:09:02.892Z,18.60
2018-06-12T13:11:31.261Z,20.70
2018-06-12T13:13:59.796Z,21.00
2018-06-12T13:16:28.161Z,20.43
2018-06-12T13:18:56.625Z,20.97
2018-06-12T13:21:25.028Z,23.00
2018-06-12T13:23:53.597Z,21.90
2018-06-12T13:26:22.106Z,25.20
2018-06-12T13:28:50.531Z,27.53
2018-06-12T13:31:18.941Z,28.03
2018-06-12T13:33:47.527Z,29.27
2018-06-12T13:36:16.025Z,29.93
2018-06-12T13:38:44.427Z,27.83
2018-06-12T13:41:12.878Z,30.50
2018-06-12T13:43:41.360Z,33.57
2018-06-12T13:46:09.548Z,31.40
2018-06-12T13:48:38.064Z,35.60
2018-06-12T13:51:06.538Z,31.50
2018-06-12T13:53:35.016Z,30.63
2018-06-12T13:56:03.549Z,32.50
2018-06-12T13:58:31.740Z,27.83
2018-06-12T14:01:00.209Z,30.40
2018-06-12T14:03:28.657Z,30.70
2018-06-12T14:05:57.165Z,30.00
2018-06-12T14:08:25.691Z,34.13
2018-06-12T14:10:54.118Z,38.80
2018-06-12T14:13:22.596Z,36.43
2018-06-12T14:15:51.010Z,37.83
2018-06-12T14:18:19.439Z,35.97
2018-06-12T14:20:47.876Z,33.77
2018-06-12T14:23:17.275Z,35.00
2018-06-12T14:25:45.690Z,32.57
2018-06-12T14:28:14.111Z,33.13
2018-06-12T14:30:42.602Z,31.20
2018-06-12T14:33:11.031Z,30.83
2018-06-12T14:35:39.457Z,28.90
2018-06-12T14:38:07.610Z,37.40
2018-06-12T14:40:36.082Z,27.00
2018-06-12T14:43:04.582Z,30.13
2018-06-12T14:45:33.072Z,28.00
2018-06-12T14:48:01.616Z,28.60
2018-06-12T14:50:30.140Z,28.23
2018-06-12T14:52:59.077Z,29.80
2018-06-12T14:55:27.714Z,28.77
2018-06-12T14:57:56.133Z,27.93
2018-06-12T15:00:24.866Z,32.13
2018-06-12T15:02:54.012Z,27.53
2018-06-12T15:05:22.823Z,28.17
2018-06-12T15:07:51.559Z,29.97
2018-06-12T15:10:20.147Z,25.90
2018-06-12T15:12:48.983Z,22.10
2018-06-12T15:15:17.584Z,20.80
2018-06-12T15:17:46.121Z,23.60
2018-06-12T15:20:14.671Z,30.63
2018-06-12T15:22:43.140Z,25.43
2018-06-12T15:25:11.604Z,25.27
2018-06-12T15:27:39.954Z,24.83
2018-06-12T15:30:08.371Z,23.20
2018-06-12T15:32:36.861Z,28.93
2018-06-12T15:35:05.344Z,23.63
2018-06-12T15:37:33.821Z,25.57
2018-06-12T15:40:02.368Z,27.63
2018-06-12T15:42:30.819Z,29.87
2018-06-12T15:44:59.265Z,30.00
2018-06-12T15:47:27.744Z,29.93
2018-06-12T15:49:56.201Z,35.20
2018-06-12T15:52:24.642Z,32.60
2018-06-12T15:54:53.077Z,31.93
2018-06-12T15:57:21.446Z,29.47
2018-06-12T15:59:49.896Z,28.07
2018-06-12T16:02:18.365Z,26.73
2018-06-12T16:04:46.801Z,30.80
2018-06-12T16:07:15.246Z,28.10
2018-06-12T16:09:43.684Z,32.90
2018-06-12T16:12:11.811Z,33.67
2018-06-12T16:14:40.284Z,36.37
2018-06-12T16:17:08.718Z,36.47
2018-06-12T16:19:36.865Z,39.10
2018-06-12T16:22:05.570Z,31.57
2018-06-12T16:24:34.044Z,35.40
2018-06-12T16:27:02.626Z,39.60
2018-06-12T16:29:31.084Z,32.47
2018-06-12T16:31:59.691Z,32.20
2018-06-12T16:34:28.073Z,31.60
2018-06-12T16:36:56.459Z,31.63
2018-06-12T16:39:25.034Z,35.70
2018-06-12T16:41:53.541Z,34.53
2018-06-12T16:44:22.093Z,32.60
2018-06-12T16:46:50.613Z,29.67
2018-06-12T16:49:19.056Z,32.53
2018-06-12T16:51:47.561Z,27.93
2018-06-12T16:54:16.050Z,34.60
2018-06-12T16:56:44.211Z,36.63
2018-06-12T16:59:12.698Z,23.73
2018-06-12T17:01:41.276Z,28.07
2018-06-12T17:04:09.990Z,26.60
2018-06-12T17:06:38.760Z,22.30
2018-06-12T17:09:08.786Z,31.93
2018-06-12T17:11:37.301Z,25.47
2018-06-12T17:14:05.804Z,22.53
2018-06-12T17:16:34.332Z,21.93
2018-06-12T17:19:02.795Z,22.47
2018-06-12T17:21:31.430Z,26.43
2018-06-12T17:24:00.210Z,26.43
2018-06-12T17:26:29.051Z,23.30
2018-06-12T17:28:57.722Z,23.17
2018-06-12T17:31:26.215Z,24.50
2018-06-12T17:33:54.726Z,21.10
2018-06-12T17:36:23.202Z,24.53
2018-06-12T17:38:51.695Z,21.10
2018-06-12T17:41:20.136Z,19.90
2018-06-12T17:43:48.542Z,18.87
2018-06-12T17:46:16.668Z,18.17
2018-06-12T17:48:45.123Z,20.87
2018-06-12T17:51:13.562Z,22.73
2018-06-12T17:53:42.074Z,17.63
2018-06-12T17:56:10.549Z,16.80
2018-06-12T17:58:39.052Z,19.83
2018-06-12T18:01:07.522Z,16.53
2018-06-12T18:03:35.964Z,16.23
2018-06-12T18:06:04.439Z,16.00
2018-06-12T18:08:32.931Z,19.57
2018-06-12T18:11:01.093Z,15.60
2018-06-12T18:13:29.505Z,13.80
2018-06-12T18:15:57.922Z,13.97
2018-06-12T18:18:26.420Z,12.67
2018-06-12T18:20:54.837Z,15.53
2018-06-12T18:23:23.251Z,12.93
2018-06-12T18:25:51.614Z,17.93
2018-06-12T18:28:20.091Z,17.87
2018-06-12T18:30:48.551Z,15.23
2018-06-12T18:33:17.082Z,14.00
2018-06-12T18:35:45.487Z,14.97
2018-06-12T18:38:14.001Z,10.93
2018-06-12T18:40:42.554Z,15.00
2018-06-12T18:43:11.048Z,11.90
2018-06-12T18:45:39.521Z,13.10
2018-06-12T18:48:08.064Z,14.40
2018-06-12T18:50:36.575Z,12.80
2018-06-12T18:53:05.182Z,15.37
2018-06-12T18:55:33.797Z,12.60
2018-06-12T18:58:02.324Z,13.97
2018-06-12T19:00:31.222Z,15.40
2018-06-12T19:03:00.031Z,11.80
2018-06-12T19:05:28.992Z,14.53
2018-06-12T19:07:57.583Z,12.57
2018-06-12T19:10:26.272Z,11.30
2018-06-12T19:12:54.714Z,13.23
2018-06-12T19:15:23.311Z,12.83
2018-06-12T19:17:51.928Z,29.63
2018-06-12T19:20:20.486Z,21.30
2018-06-12T19:22:49.400Z,13.43
2018-06-12T19:25:18.239Z,13.83
2018-06-12T19:27:46.863Z,14.87
2018-06-12T19:30:15.334Z,19.53
2018-06-12T19:32:43.769Z,18.53
2018-06-12T19:35:12.179Z,11.43
2018-06-12T19:37:40.822Z,12.67
2018-06-12T19:40:09.578Z,20.23
2018-06-12T19:42:38.475Z,11.07
2018-06-12T19:45:07.112Z,16.73
2018-06-12T19:47:35.649Z,14.83
2018-06-12T19:50:04.156Z,10.73
2018-06-12T19:52:32.614Z,11.63
2018-06-12T19:55:01.067Z,11.93
2018-06-12T19:57:29.839Z,11.90
2018-06-12T19:59:58.514Z,13.83
2018-06-12T20:02:27.044Z,10.80
2018-06-12T20:04:55.529Z,20.73
2018-06-12T20:07:23.980Z,18.50
2018-06-12T20:09:52.460Z,25.80
2018-06-12T20:12:21.017Z,13.37
2018-06-12T20:14:49.701Z,12.57
2018-06-12T20:17:18.265Z,11.60
2018-06-12T20:19:46.814Z,10.20
2018-06-12T20:22:15.283Z,14.37
2018-06-12T20:24:43.802Z,14.63
2018-06-12T20:27:12.294Z,13.97
2018-06-12T20:29:40.425Z,15.03
2018-06-12T20:32:08.905Z,16.43
2018-06-12T20:34:37.589Z,15.60
2018-06-12T20:37:06.455Z,9.37
2018-06-12T20:39:35.229Z,9.50
2018-06-12T20:42:03.926Z,19.20
2018-06-12T20:44:32.418Z,10.70
2018-06-12T20:47:00.834Z,12.07
2018-06-12T20:49:29.330Z,12.23
2018-06-12T20:51:57.817Z,10.40
2018-06-12T20:54:26.552Z,11.70
2018-06-12T20:56:55.417Z,11.60
2018-06-12T20:59:24.117Z,12.93
2018-06-12T21:01:52.711Z,9.93
2018-06-12T21:04:21.269Z,9.57
2018-06-12T21:06:49.821Z,14.53
2018-06-12T21:09:18.377Z,10.33
2018-06-12T21:11:47.051Z,10.50
2018-06-12T21:14:16.149Z,9.80
2018-06-12T21:16:44.999Z,16.30
2018-06-12T21:19:13.476Z,15.37
2018-06-12T21:21:41.956Z,14.67
2018-06-12T21:24:10.165Z,13.17
2018-06-12T21:26:38.734Z,12.60
2018-06-12T21:29:07.498Z,12.27
2018-06-12T21:31:35.735Z,9.87
2018-06-12T21:34:04.512Z,15.83
2018-06-12T21:36:33.056Z,10.10
2018-06-12T21:39:01.681Z,13.13
2018-06-12T21:41:30.205Z,16.37
2018-06-12T21:43:58.692Z,11.70
2018-06-12T21:46:27.441Z,18.33
2018-06-12T21:48:56.280Z,11.53
2018-06-12T21:51:24.794Z,11.80
2018-06-12T21:53:53.311Z,17.00
2018-06-12T21:56:21.865Z,10.87
2018-06-12T21:58:50.389Z,13.90
2018-06-12T22:01:18.896Z,11.30
2018-06-12T22:03:47.365Z,12.37
2018-06-12T22:06:15.525Z,12.53
2018-06-12T22:08:43.924Z,13.00
2018-06-12T22:11:12.328Z,12.30
2018-06-12T22:13:40.812Z,11.33
2018-06-12T22:16:09.236Z,11.60
2018-06-12T22:18:37.741Z,13.40
2018-06-12T22:21:06.223Z,12.50
2018-06-12T22:23:34.672Z,12.70
2018-06-12T22:26:03.145Z,12.23
2018-06-12T22:28:31.664Z,11.77
2018-06-12T22:31:00.225Z,14.93
2018-06-12T22:33:28.718Z,14.47
2018-06-12T22:35:57.141Z,11.50
2018-06-12T22:38:25.554Z,29.00
2018-06-12T22:40:53.977Z,19.00
2018-06-12T22:43:22.408Z,13.50
2018-06-12T22:45:50.878Z,10.00
2018-06-12T22:48:19.461Z,14.07
2018-06-12T22:50:47.908Z,12.80
2018-06-12T22:53:16.452Z,10.70
2018-06-12T22:55:44.943Z,10.70
2018-06-12T22:58:13.469Z,13.73
2018-06-12T23:00:41.955Z,10.97
2018-06-12T23:03:10.507Z,11.87
2018-06-12T23:05:38.987Z,12.73
2018-06-12T23:08:07.491Z,11.30
2018-06-12T23:10:35.849Z,15.33
2018-06-12T23:13:03.955Z,11.43
2018-06-12T23:15:32.386Z,10.50
2018-06-12T23:18:00.921Z,12.70
2018-06-12T23:20:42.454Z,12.00
2018-06-12T23:23:10.948Z,11.03
2018-06-12T23:25:39.498Z,10.67
2018-06-12T23:28:08.067Z,17.97
2018-06-12T23:30:36.696Z,14.40
2018-06-12T23:33:05.259Z,11.97
2018-06-12T23:35:33.881Z,10.13
2018-06-12T23:38:02.456Z,10.40
2018-06-12T23:40:31.057Z,12.03
2018-06-12T23:42:59.525Z,10.53
2018-06-12T23:45:28.042Z,9.57
2018-06-12T23:47:56.493Z,9.60
2018-06-12T23:50:24.964Z,13.93
2018-06-12T23:52:53.476Z,11.70
2018-06-12T23:55:22.072Z,10.80
2018-06-12T23:57:50.508Z,12.07
